sensor_id;sensor_type;location;lat;lon;timestamp;pressure;altitude;pressure_sealevel;temperature;humidity
48216;BME280;34005;48.844;10.098;2024-02-04T00:00:48;97720.25;;;8.09;73.48
48216;BME280;34005;48.844;10.098;2024-02-04T00:03:16;97718.59;;;8.08;72.78
48216;BME280;34005;48.844;10.098;2024-02-04T00:05:46;97714.22;;;8.09;73.25
48216;BME280;34005;48.844;10.098;2024-02-04T00:08:15;97708.22;;;8.08;72.93
48216;BME280;34005;48.844;10.098;2024-02-04T00:10:44;97704.66;;;8.09;73.07
48216;BME280;34005;48.844;10.098;2024-02-04T00:13:11;97697.81;;;8.08;72.87
48216;BME280;34005;48.844;10.098;2024-02-04T00:15:39;97685.78;;;8.07;72.91
48216;BME280;34005;48.844;10.098;2024-02-04T00:18:06;97695.50;;;8.05;72.98
48216;BME280;34005;48.844;10.098;2024-02-04T00:20:36;97696.44;;;8.04;72.86
48216;BME280;34005;48.844;10.098;2024-02-04T00:23:03;97683.75;;;8.01;72.94
48216;BME280;34005;48.844;10.098;2024-02-04T00:25:32;97684.84;;;7.98;73.28
48216;BME280;34005;48.844;10.098;2024-02-04T00:28:00;97677.06;;;7.98;73.58
48216;BME280;34005;48.844;10.098;2024-02-04T00:30:27;97671.19;;;7.96;73.44
48216;BME280;34005;48.844;10.098;2024-02-04T00:32:55;97659.00;;;7.97;73.92
48216;BME280;34005;48.844;10.098;2024-02-04T00:35:29;97651.88;;;7.99;74.60
48216;BME280;34005;48.844;10.098;2024-02-04T00:37:56;97645.88;;;7.98;74.25
48216;BME280;34005;48.844;10.098;2024-02-04T00:40:24;97655.44;;;7.98;74.45
48216;BME280;34005;48.844;10.098;2024-02-04T00:42:54;97646.94;;;7.96;75.22
48216;BME280;34005;48.844;10.098;2024-02-04T00:45:22;97643.41;;;7.97;75.11
48216;BME280;34005;48.844;10.098;2024-02-04T00:47:50;97640.94;;;7.95;74.79
48216;BME280;34005;48.844;10.098;2024-02-04T00:50:17;97654.09;;;7.94;74.79
48216;BME280;34005;48.844;10.098;2024-02-04T00:52:45;97670.75;;;7.91;75.04
48216;BME280;34005;48.844;10.098;2024-02-04T00:55:13;97674.59;;;7.87;74.67
48216;BME280;34005;48.844;10.098;2024-02-04T00:57:41;97681.84;;;7.83;74.65
48216;BME280;34005;48.844;10.098;2024-02-04T01:00:11;97690.56;;;7.82;75.38
48216;BME280;34005;48.844;10.098;2024-02-04T01:02:39;97695.09;;;7.80;74.95
48216;BME280;34005;48.844;10.098;2024-02-04T01:05:07;97693.34;;;7.81;75.14
48216;BME280;34005;48.844;10.098;2024-02-04T01:07:35;97678.69;;;7.80;75.08
48216;BME280;34005;48.844;10.098;2024-02-04T01:10:02;97686.47;;;7.80;75.29
48216;BME280;34005;48.844;10.098;2024-02-04T01:12:35;97685.53;;;7.81;75.44
48216;BME280;34005;48.844;10.098;2024-02-04T01:15:03;97680.34;;;7.81;75.19
48216;BME280;34005;48.844;10.098;2024-02-04T01:17:33;97676.38;;;7.77;75.31
48216;BME280;34005;48.844;10.098;2024-02-04T01:20:01;97676.25;;;7.78;75.82
48216;BME280;34005;48.844;10.098;2024-02-04T01:22:28;97672.69;;;7.79;75.66
48216;BME280;34005;48.844;10.098;2024-02-04T01:24:56;97669.13;;;7.80;76.28
48216;BME280;34005;48.844;10.098;2024-02-04T01:27:23;97668.03;;;7.83;76.70
48216;BME280;34005;48.844;10.098;2024-02-04T01:29:51;97672.94;;;7.86;76.79
48216;BME280;34005;48.844;10.098;2024-02-04T01:32:19;97674.59;;;7.87;76.22
48216;BME280;34005;48.844;10.098;2024-02-04T01:34:48;97668.84;;;7.83;76.32
48216;BME280;34005;48.844;10.098;2024-02-04T01:37:16;97667.19;;;7.82;75.71
48216;BME280;34005;48.844;10.098;2024-02-04T01:39:44;97662.97;;;7.81;75.35
48216;BME280;34005;48.844;10.098;2024-02-04T01:42:12;97660.38;;;7.81;75.32
48216;BME280;34005;48.844;10.098;2024-02-04T01:44:39;97655.19;;;7.81;74.99
48216;BME280;34005;48.844;10.098;2024-02-04T01:47:07;97663.91;;;7.80;75.26
48216;BME280;34005;48.844;10.098;2024-02-04T01:49:35;97653.53;;;7.80;75.17
48216;BME280;34005;48.844;10.098;2024-02-04T01:52:07;97648.34;;;7.80;74.75
48216;BME280;34005;48.844;10.098;2024-02-04T01:54:37;97639.72;;;7.80;74.75
48216;BME280;34005;48.844;10.098;2024-02-04T01:57:06;97641.38;;;7.81;75.04
48216;BME280;34005;48.844;10.098;2024-02-04T01:59:33;97635.22;;;7.82;74.99
48216;BME280;34005;48.844;10.098;2024-02-04T02:02:01;97629.09;;;7.83;74.76
48216;BME280;34005;48.844;10.098;2024-02-04T02:04:29;97632.50;;;7.83;74.75
48216;BME280;34005;48.844;10.098;2024-02-04T02:06:57;97638.50;;;7.84;74.18
48216;BME280;34005;48.844;10.098;2024-02-04T02:09:27;97644.66;;;7.83;74.01
48216;BME280;34005;48.844;10.098;2024-02-04T02:12:01;97641.38;;;7.81;73.77
48216;BME280;34005;48.844;10.098;2024-02-04T02:14:33;97637.81;;;7.82;74.01
48216;BME280;34005;48.844;10.098;2024-02-04T02:17:05;97641.22;;;7.82;73.91
48216;BME280;34005;48.844;10.098;2024-02-04T02:19:40;97650.81;;;7.82;73.79
48216;BME280;34005;48.844;10.098;2024-02-04T02:22:22;97645.59;;;7.82;73.17
48216;BME280;34005;48.844;10.098;2024-02-04T02:24:56;97664.75;;;7.81;73.08
48216;BME280;34005;48.844;10.098;2024-02-04T02:27:23;97662.16;;;7.81;72.88
48216;BME280;34005;48.844;10.098;2024-02-04T02:29:51;97653.28;;;7.83;73.44
48216;BME280;34005;48.844;10.098;2024-02-04T02:32:19;97648.06;;;7.83;73.33
48216;BME280;34005;48.844;10.098;2024-02-04T02:34:47;97637.69;;;7.83;73.14
48216;BME280;34005;48.844;10.098;2024-02-04T02:37:22;97641.09;;;7.84;73.21
48216;BME280;34005;48.844;10.098;2024-02-04T02:39:57;97654.91;;;7.84;73.88
48216;BME280;34005;48.844;10.098;2024-02-04T02:42:26;97653.97;;;7.86;73.63
48216;BME280;34005;48.844;10.098;2024-02-04T02:44:55;97646.97;;;7.86;72.85
48216;BME280;34005;48.844;10.098;2024-02-04T02:47:24;97647.78;;;7.87;73.13
48216;BME280;34005;48.844;10.098;2024-02-04T02:49:54;97644.94;;;7.90;74.23
48216;BME280;34005;48.844;10.098;2024-02-04T02:52:22;97647.25;;;7.93;73.41
48216;BME280;34005;48.844;10.098;2024-02-04T02:54:50;97642.03;;;7.93;72.79
48216;BME280;34005;48.844;10.098;2024-02-04T02:57:19;97642.03;;;7.93;72.42
48216;BME280;34005;48.844;10.098;2024-02-04T02:59:46;97640.13;;;7.95;72.62
48216;BME280;34005;48.844;10.098;2024-02-04T03:02:14;97648.59;;;7.97;72.60
48216;BME280;34005;48.844;10.098;2024-02-04T03:04:42;97631.22;;;7.97;73.36
48216;BME280;34005;48.844;10.098;2024-02-04T03:07:10;97635.31;;;8.00;73.11
48216;BME280;34005;48.844;10.098;2024-02-04T03:09:37;97636.28;;;7.99;72.86
48216;BME280;34005;48.844;10.098;2024-02-04T03:12:06;97645.72;;;8.00;73.03
48216;BME280;34005;48.844;10.098;2024-02-04T03:14:35;97644.91;;;7.99;72.65
48216;BME280;34005;48.844;10.098;2024-02-04T03:17:02;97647.50;;;7.99;72.06
48216;BME280;34005;48.844;10.098;2024-02-04T03:19:30;97644.09;;;7.99;72.74
48216;BME280;34005;48.844;10.098;2024-02-04T03:21:58;97646.69;;;7.99;72.70
48216;BME280;34005;48.844;10.098;2024-02-04T03:24:25;97647.38;;;8.01;72.59
48216;BME280;34005;48.844;10.098;2024-02-04T03:26:53;97641.19;;;8.02;72.01
48216;BME280;34005;48.844;10.098;2024-02-04T03:29:21;97646.69;;;7.99;71.64
48216;BME280;34005;48.844;10.098;2024-02-04T03:31:49;97643.41;;;7.97;71.59
48216;BME280;34005;48.844;10.098;2024-02-04T03:34:17;97647.63;;;7.98;72.41
48216;BME280;34005;48.844;10.098;2024-02-04T03:36:45;97650.22;;;7.98;72.14
48216;BME280;34005;48.844;10.098;2024-02-04T03:39:12;97638.91;;;7.99;72.08
48216;BME280;34005;48.844;10.098;2024-02-04T03:41:40;97625.09;;;7.98;72.59
48216;BME280;34005;48.844;10.098;2024-02-04T03:44:08;97620.03;;;7.97;72.89
48216;BME280;34005;48.844;10.098;2024-02-04T03:46:35;97624.25;;;7.98;73.03
48216;BME280;34005;48.844;10.098;2024-02-04T03:49:07;97628.50;;;7.99;72.91
48216;BME280;34005;48.844;10.098;2024-02-04T03:51:35;97633.00;;;7.97;72.82
48216;BME280;34005;48.844;10.098;2024-02-04T03:54:03;97633.81;;;7.97;72.99
48216;BME280;34005;48.844;10.098;2024-02-04T03:56:31;97641.50;;;7.99;73.08
48216;BME280;34005;48.844;10.098;2024-02-04T03:58:58;97647.38;;;8.01;73.29
48216;BME280;34005;48.844;10.098;2024-02-04T04:01:26;97645.72;;;8.00;72.75
48216;BME280;34005;48.844;10.098;2024-02-04T04:03:53;97657.09;;;7.99;72.41
48216;BME280;34005;48.844;10.098;2024-02-04T04:06:22;97650.22;;;7.98;73.52
48216;BME280;34005;48.844;10.098;2024-02-04T04:08:50;97640.38;;;8.01;74.29
48216;BME280;34005;48.844;10.098;2024-02-04T04:11:18;97639.97;;;8.06;74.07
48216;BME280;34005;48.844;10.098;2024-02-04T04:13:45;97649.41;;;8.07;73.54
48216;BME280;34005;48.844;10.098;2024-02-04T04:16:13;97646.94;;;8.05;73.09
48216;BME280;34005;48.844;10.098;2024-02-04T04:18:40;97643.53;;;8.05;72.89
48216;BME280;34005;48.844;10.098;2024-02-04T04:21:08;97643.78;;;8.02;72.77
48216;BME280;34005;48.844;10.098;2024-02-04T04:23:37;97641.38;;;8.00;72.66
48216;BME280;34005;48.844;10.098;2024-02-04T04:26:05;97631.09;;;7.99;72.46
48216;BME280;34005;48.844;10.098;2024-02-04T04:28:32;97625.09;;;7.98;73.30
48216;BME280;34005;48.844;10.098;2024-02-04T04:31:00;97641.50;;;7.99;72.87
48216;BME280;34005;48.844;10.098;2024-02-04T04:33:29;97639.03;;;7.97;72.28
48216;BME280;34005;48.844;10.098;2024-02-04T04:35:57;97640.94;;;7.95;72.16
48216;BME280;34005;48.844;10.098;2024-02-04T04:38:24;97645.63;;;7.92;72.15
48216;BME280;34005;48.844;10.098;2024-02-04T04:40:53;97647.25;;;7.93;73.19
48216;BME280;34005;48.844;10.098;2024-02-04T04:43:21;97657.50;;;7.94;72.36
48216;BME280;34005;48.844;10.098;2024-02-04T04:45:48;97663.50;;;7.95;72.30
48216;BME280;34005;48.844;10.098;2024-02-04T04:48:16;97659.13;;;7.95;73.02
48216;BME280;34005;48.844;10.098;2024-02-04T04:50:44;97646.13;;;7.95;72.59
48216;BME280;34005;48.844;10.098;2024-02-04T04:53:12;97649.53;;;7.96;72.38
48216;BME280;34005;48.844;10.098;2024-02-04T04:55:39;97641.75;;;7.96;72.61
48216;BME280;34005;48.844;10.098;2024-02-04T04:58:08;97638.22;;;7.97;72.98
48216;BME280;34005;48.844;10.098;2024-02-04T05:00:36;97639.84;;;7.98;73.23
48216;BME280;34005;48.844;10.098;2024-02-04T05:03:04;97626.84;;;7.98;72.81
48216;BME280;34005;48.844;10.098;2024-02-04T05:05:32;97631.09;;;7.99;73.25
48216;BME280;34005;48.844;10.098;2024-02-04T05:07:59;97633.69;;;7.99;72.97
48216;BME280;34005;48.844;10.098;2024-02-04T05:10:27;97631.09;;;7.99;73.18
48216;BME280;34005;48.844;10.098;2024-02-04T05:12:54;97629.31;;;7.99;73.08
48216;BME280;34005;48.844;10.098;2024-02-04T05:15:23;97627.53;;;8.00;73.67
48216;BME280;34005;48.844;10.098;2024-02-04T05:17:51;97646.13;;;8.05;74.20
48216;BME280;34005;48.844;10.098;2024-02-04T05:20:19;97639.03;;;8.07;73.34
48216;BME280;34005;48.844;10.098;2024-02-04T05:22:46;97642.44;;;8.08;73.16
48216;BME280;34005;48.844;10.098;2024-02-04T05:25:14;97635.44;;;8.08;73.32
48216;BME280;34005;48.844;10.098;2024-02-04T05:27:41;97635.19;;;8.11;73.39
48216;BME280;34005;48.844;10.098;2024-02-04T05:30:11;97641.19;;;8.12;72.75
48216;BME280;34005;48.844;10.098;2024-02-04T05:32:40;97638.72;;;8.10;73.46
48216;BME280;34005;48.844;10.098;2024-02-04T05:35:08;97636.00;;;8.12;73.03
48216;BME280;34005;48.844;10.098;2024-02-04T05:37:35;97633.22;;;8.13;72.68
48216;BME280;34005;48.844;10.098;2024-02-04T05:40:04;97634.34;;;8.11;72.57
48216;BME280;34005;48.844;10.098;2024-02-04T05:42:33;97640.66;;;8.08;72.34
48216;BME280;34005;48.844;10.098;2024-02-04T05:45:02;97644.47;;;8.04;72.51
48216;BME280;34005;48.844;10.098;2024-02-04T05:47:29;97643.97;;;8.00;72.39
48216;BME280;34005;48.844;10.098;2024-02-04T05:49:58;97639.69;;;7.99;72.30
48216;BME280;34005;48.844;10.098;2024-02-04T05:52:26;97638.22;;;7.97;72.81
48216;BME280;34005;48.844;10.098;2024-02-04T05:54:54;97651.06;;;7.98;73.70
48216;BME280;34005;48.844;10.098;2024-02-04T05:57:22;97649.28;;;7.99;73.79
48216;BME280;34005;48.844;10.098;2024-02-04T05:59:49;97663.91;;;8.00;73.53
48216;BME280;34005;48.844;10.098;2024-02-04T06:02:19;97663.09;;;7.99;72.98
48216;BME280;34005;48.844;10.098;2024-02-04T06:04:46;97657.63;;;7.93;72.75
48216;BME280;34005;48.844;10.098;2024-02-04T06:07:16;97667.22;;;7.92;73.82
48216;BME280;34005;48.844;10.098;2024-02-04T06:09:43;97647.25;;;7.93;73.93
48216;BME280;34005;48.844;10.098;2024-02-04T06:12:11;97642.03;;;7.93;73.70
48216;BME280;34005;48.844;10.098;2024-02-04T06:14:38;97641.22;;;7.92;73.76
48216;BME280;34005;48.844;10.098;2024-02-04T06:17:07;97636.28;;;7.89;73.87
48216;BME280;34005;48.844;10.098;2024-02-04T06:19:36;97628.66;;;7.88;73.52
48216;BME280;34005;48.844;10.098;2024-02-04T06:22:04;97636.47;;;7.88;73.82
48216;BME280;34005;48.844;10.098;2024-02-04T06:24:33;97643.56;;;7.86;73.97
48216;BME280;34005;48.844;10.098;2024-02-04T06:27:03;97637.69;;;7.83;74.11
48216;BME280;34005;48.844;10.098;2024-02-04T06:29:31;97646.41;;;7.82;74.28
48216;BME280;34005;48.844;10.098;2024-02-04T06:31:59;97646.41;;;7.82;74.34
48216;BME280;34005;48.844;10.098;2024-02-04T06:34:26;97641.38;;;7.81;74.91
48216;BME280;34005;48.844;10.098;2024-02-04T06:36:54;97641.22;;;7.82;75.06
48216;BME280;34005;48.844;10.098;2024-02-04T06:39:22;97649.69;;;7.84;74.91
48216;BME280;34005;48.844;10.098;2024-02-04T06:41:51;97647.78;;;7.87;74.91
48216;BME280;34005;48.844;10.098;2024-02-04T06:44:18;97650.38;;;7.87;74.60
48216;BME280;34005;48.844;10.098;2024-02-04T06:46:46;97647.78;;;7.87;74.45
48216;BME280;34005;48.844;10.098;2024-02-04T06:49:14;97656.25;;;7.89;74.48
48216;BME280;34005;48.844;10.098;2024-02-04T06:51:44;97648.47;;;7.89;74.54
48216;BME280;34005;48.844;10.098;2024-02-04T06:54:13;97659.03;;;7.87;74.00
48216;BME280;34005;48.844;10.098;2024-02-04T06:56:40;97667.75;;;7.86;73.83
48216;BME280;34005;48.844;10.098;2024-02-04T06:59:09;97672.94;;;7.86;74.29
48216;BME280;34005;48.844;10.098;2024-02-04T07:01:37;97657.50;;;7.84;74.08
48216;BME280;34005;48.844;10.098;2024-02-04T07:04:05;97663.38;;;7.87;74.39
48216;BME280;34005;48.844;10.098;2024-02-04T07:06:32;97670.22;;;7.88;73.87
48216;BME280;34005;48.844;10.098;2024-02-04T07:09:00;97665.03;;;7.88;74.38
48216;BME280;34005;48.844;10.098;2024-02-04T07:11:28;97662.44;;;7.88;73.94
48216;BME280;34005;48.844;10.098;2024-02-04T07:13:55;97661.75;;;7.86;73.70
48216;BME280;34005;48.844;10.098;2024-02-04T07:16:28;97663.66;;;7.83;73.88
48216;BME280;34005;48.844;10.098;2024-02-04T07:18:55;97670.78;;;7.81;73.91
48216;BME280;34005;48.844;10.098;2024-02-04T07:21:23;97668.84;;;7.83;74.07
48216;BME280;34005;48.844;10.098;2024-02-04T07:23:51;97654.91;;;7.84;73.71
48216;BME280;34005;48.844;10.098;2024-02-04T07:26:18;97659.41;;;7.82;74.35
48216;BME280;34005;48.844;10.098;2024-02-04T07:28:46;97656.81;;;7.82;74.95
48216;BME280;34005;48.844;10.098;2024-02-04T07:31:13;97654.78;;;7.86;74.72
48216;BME280;34005;48.844;10.098;2024-02-04T07:33:42;97648.47;;;7.89;74.14
48216;BME280;34005;48.844;10.098;2024-02-04T07:36:10;97655.16;;;7.91;74.84
48216;BME280;34005;48.844;10.098;2024-02-04T07:38:38;97648.34;;;7.90;74.44
48216;BME280;34005;48.844;10.098;2024-02-04T07:41:05;97663.94;;;7.90;74.15
48216;BME280;34005;48.844;10.098;2024-02-04T07:43:33;97650.25;;;7.88;73.88
48216;BME280;34005;48.844;10.098;2024-02-04T07:46:00;97648.47;;;7.89;73.83
48216;BME280;34005;48.844;10.098;2024-02-04T07:48:31;97653.66;;;7.89;74.02
48216;BME280;34005;48.844;10.098;2024-02-04T07:50:59;97648.47;;;7.89;73.92
48216;BME280;34005;48.844;10.098;2024-02-04T07:53:27;97653.66;;;7.89;73.91
48216;BME280;34005;48.844;10.098;2024-02-04T07:55:54;97649.44;;;7.88;73.44
48216;BME280;34005;48.844;10.098;2024-02-04T07:58:22;97639.31;;;7.84;73.46
48216;BME280;34005;48.844;10.098;2024-02-04T08:00:49;97630.56;;;7.86;73.56
48216;BME280;34005;48.844;10.098;2024-02-04T08:03:17;97626.88;;;7.88;73.33
48216;BME280;34005;48.844;10.098;2024-02-04T08:05:45;97633.56;;;7.91;73.71
48216;BME280;34005;48.844;10.098;2024-02-04T08:08:14;97636.84;;;7.93;74.63
48216;BME280;34005;48.844;10.098;2024-02-04T08:10:42;97628.91;;;7.94;74.03
48216;BME280;34005;48.844;10.098;2024-02-04T08:13:09;97634.94;;;7.95;74.02
48216;BME280;34005;48.844;10.098;2024-02-04T08:15:37;97636.56;;;7.96;74.38
48216;BME280;34005;48.844;10.098;2024-02-04T08:18:04;97624.25;;;7.98;74.02
48216;BME280;34005;48.844;10.098;2024-02-04T08:20:34;97625.91;;;7.99;74.08
48216;BME280;34005;48.844;10.098;2024-02-04T08:23:01;97626.44;;;8.02;74.68
48216;BME280;34005;48.844;10.098;2024-02-04T08:25:30;97627.94;;;8.05;73.98
48216;BME280;34005;48.844;10.098;2024-02-04T08:27:58;97622.75;;;8.05;73.60
48216;BME280;34005;48.844;10.098;2024-02-04T08:30:26;97634.63;;;8.08;73.35
48216;BME280;34005;48.844;10.098;2024-02-04T08:32:53;97641.63;;;8.07;73.37
48216;BME280;34005;48.844;10.098;2024-02-04T08:35:21;97637.22;;;8.08;73.87
48216;BME280;34005;48.844;10.098;2024-02-04T08:37:49;97649.94;;;8.11;74.23
48216;BME280;34005;48.844;10.098;2024-02-04T08:40:16;97646.09;;;8.15;73.63
48216;BME280;34005;48.844;10.098;2024-02-04T08:42:45;97645.84;;;8.18;73.61
48216;BME280;34005;48.844;10.098;2024-02-04T08:45:13;97641.16;;;8.21;73.74
48216;BME280;34005;48.844;10.098;2024-02-04T08:47:41;97647.72;;;8.25;73.36
48216;BME280;34005;48.844;10.098;2024-02-04T08:50:10;97642.22;;;8.29;72.63
48216;BME280;34005;48.844;10.098;2024-02-04T08:52:38;97640.84;;;8.34;72.59
48216;BME280;34005;48.844;10.098;2024-02-04T08:55:06;97633.44;;;8.39;72.90
48216;BME280;34005;48.844;10.098;2024-02-04T08:57:35;97638.53;;;8.41;73.55
48216;BME280;34005;48.844;10.098;2024-02-04T09:00:05;97639.88;;;8.45;73.04
48216;BME280;34005;48.844;10.098;2024-02-04T09:02:34;97628.91;;;8.51;72.16
48216;BME280;34005;48.844;10.098;2024-02-04T09:05:02;97622.47;;;8.55;71.84
48216;BME280;34005;48.844;10.098;2024-02-04T09:07:30;97616.97;;;8.58;72.04
48216;BME280;34005;48.844;10.098;2024-02-04T09:10:00;97617.34;;;8.63;71.85
48216;BME280;34005;48.844;10.098;2024-02-04T09:12:27;97625.81;;;8.65;71.75
48216;BME280;34005;48.844;10.098;2024-02-04T09:14:55;97632.38;;;8.70;71.54
48216;BME280;34005;48.844;10.098;2024-02-04T09:17:24;97638.13;;;8.73;70.70
48216;BME280;34005;48.844;10.098;2024-02-04T09:19:51;97642.66;;;8.71;70.63
48216;BME280;34005;48.844;10.098;2024-02-04T09:22:19;97643.75;;;8.69;70.77
48216;BME280;34005;48.844;10.098;2024-02-04T09:24:47;97636.78;;;8.69;70.47
48216;BME280;34005;48.844;10.098;2024-02-04T09:27:15;97631.56;;;8.69;70.63
48216;BME280;34005;48.844;10.098;2024-02-04T09:29:42;97634.31;;;8.68;70.33
48216;BME280;34005;48.844;10.098;2024-02-04T09:32:10;97627.03;;;8.71;71.06
48216;BME280;34005;48.844;10.098;2024-02-04T09:34:45;97639.91;;;8.73;71.41
48216;BME280;34005;48.844;10.098;2024-02-04T09:37:12;97638.00;;;8.75;70.32
48216;BME280;34005;48.844;10.098;2024-02-04T09:39:40;97642.53;;;8.73;70.16
48216;BME280;34005;48.844;10.098;2024-02-04T09:42:08;97642.53;;;8.73;70.28
48216;BME280;34005;48.844;10.098;2024-02-04T09:44:36;97637.16;;;8.74;70.79
48216;BME280;34005;48.844;10.098;2024-02-04T09:47:05;97646.16;;;8.80;70.70
48216;BME280;34005;48.844;10.098;2024-02-04T09:49:33;97640.41;;;8.86;70.08
48216;BME280;34005;48.844;10.098;2024-02-04T09:52:07;97645.97;;;8.91;69.84
48216;BME280;34005;48.844;10.098;2024-02-04T09:54:41;97637.28;;;9.00;70.20
48216;BME280;34005;48.844;10.098;2024-02-04T09:57:12;97636.44;;;9.10;69.67
48216;BME280;34005;48.844;10.098;2024-02-04T09:59:40;97631.72;;;9.13;69.28
48216;BME280;34005;48.844;10.098;2024-02-04T10:02:10;97637.59;;;9.15;69.96
48216;BME280;34005;48.844;10.098;2024-02-04T10:04:41;97626.06;;;9.18;69.75
48216;BME280;34005;48.844;10.098;2024-02-04T10:07:11;97631.69;;;9.23;70.00
48216;BME280;34005;48.844;10.098;2024-02-04T10:09:41;97625.84;;;9.29;70.25
48216;BME280;34005;48.844;10.098;2024-02-04T10:12:09;97632.13;;;9.36;69.90
48216;BME280;34005;48.844;10.098;2024-02-04T10:14:37;97648.44;;;9.38;69.14
48216;BME280;34005;48.844;10.098;2024-02-04T10:17:04;97646.63;;;9.39;69.26
48216;BME280;34005;48.844;10.098;2024-02-04T10:19:32;97645.81;;;9.38;68.96
48216;BME280;34005;48.844;10.098;2024-02-04T10:22:01;97639.63;;;9.39;68.88
48216;BME280;34005;48.844;10.098;2024-02-04T10:24:30;97639.78;;;9.38;68.69
48216;BME280;34005;48.844;10.098;2024-02-04T10:26:58;97646.63;;;9.39;68.76
48216;BME280;34005;48.844;10.098;2024-02-04T10:29:26;97631.81;;;9.39;68.26
48216;BME280;34005;48.844;10.098;2024-02-04T10:31:54;97627.28;;;9.41;68.25
48216;BME280;34005;48.844;10.098;2024-02-04T10:34:22;97623.88;;;9.41;68.52
48216;BME280;34005;48.844;10.098;2024-02-04T10:36:50;97598.63;;;9.41;69.17
48216;BME280;34005;48.844;10.098;2024-02-04T10:39:18;97601.31;;;9.49;69.13
48216;BME280;34005;48.844;10.098;2024-02-04T10:41:49;97590.00;;;9.59;68.08
48216;BME280;34005;48.844;10.098;2024-02-04T10:44:22;97580.59;;;9.66;69.03
48216;BME280;34005;48.844;10.098;2024-02-04T10:46:51;97571.50;;;9.70;68.70
48216;BME280;34005;48.844;10.098;2024-02-04T10:49:19;97587.94;;;9.70;68.13
48216;BME280;34005;48.844;10.098;2024-02-04T10:51:47;97585.22;;;9.72;68.43
48216;BME280;34005;48.844;10.098;2024-02-04T10:54:16;97577.91;;;9.76;68.25
48216;BME280;34005;48.844;10.098;2024-02-04T10:56:45;97583.63;;;9.79;68.89
48216;BME280;34005;48.844;10.098;2024-02-04T10:59:17;97576.63;;;9.80;67.83
48216;BME280;34005;48.844;10.098;2024-02-04T11:01:47;97577.75;;;9.77;67.51
48216;BME280;34005;48.844;10.098;2024-02-04T11:04:17;97581.34;;;9.76;67.47
48216;BME280;34005;48.844;10.098;2024-02-04T11:06:45;97568.16;;;9.78;67.48
48216;BME280;34005;48.844;10.098;2024-02-04T11:09:13;97577.44;;;9.80;67.60
48216;BME280;34005;48.844;10.098;2024-02-04T11:11:44;97574.19;;;9.78;67.42
48216;BME280;34005;48.844;10.098;2024-02-04T11:14:16;97582.00;;;9.78;67.69
48216;BME280;34005;48.844;10.098;2024-02-04T11:17:18;97566.69;;;9.75;67.10
48216;BME280;34005;48.844;10.098;2024-02-04T11:20:00;97575.44;;;9.74;67.26
48216;BME280;34005;48.844;10.098;2024-02-04T11:22:50;97562.41;;;9.74;66.69
48216;BME280;34005;48.844;10.098;2024-02-04T11:25:38;97547.78;;;9.73;66.88
48216;BME280;34005;48.844;10.098;2024-02-04T11:28:10;97549.25;;;9.76;67.20
48216;BME280;34005;48.844;10.098;2024-02-04T11:30:39;97542.91;;;9.78;67.21
48216;BME280;34005;48.844;10.098;2024-02-04T11:33:10;97544.72;;;9.86;67.71
48216;BME280;34005;48.844;10.098;2024-02-04T11:35:38;97554.53;;;9.92;67.25
48216;BME280;34005;48.844;10.098;2024-02-04T11:38:06;97552.47;;;9.96;66.67
48216;BME280;34005;48.844;10.098;2024-02-04T11:40:34;97553.41;;;9.95;66.46
48216;BME280;34005;48.844;10.098;2024-02-04T11:43:04;97561.63;;;10.00;67.89
48216;BME280;34005;48.844;10.098;2024-02-04T11:45:32;97547.97;;;10.06;67.47
48216;BME280;34005;48.844;10.098;2024-02-04T11:48:08;97538.69;;;10.11;68.07
48216;BME280;34005;48.844;10.098;2024-02-04T11:50:37;97538.41;;;10.15;66.77
48216;BME280;34005;48.844;10.098;2024-02-04T11:53:06;97523.56;;;10.15;65.91
48216;BME280;34005;48.844;10.098;2024-02-04T11:55:36;97536.91;;;10.12;65.70
48216;BME280;34005;48.844;10.098;2024-02-04T11:58:08;97521.44;;;10.10;66.32
48216;BME280;34005;48.844;10.098;2024-02-04T12:00:36;97541.44;;;10.10;65.99
48216;BME280;34005;48.844;10.098;2024-02-04T12:03:06;97525.00;;;10.09;66.12
48216;BME280;34005;48.844;10.098;2024-02-04T12:05:35;97522.56;;;10.08;66.18
48216;BME280;34005;48.844;10.098;2024-02-04T12:08:05;97524.50;;;10.06;66.26
48216;BME280;34005;48.844;10.098;2024-02-04T12:10:34;97523.53;;;10.07;67.06
48216;BME280;34005;48.844;10.098;2024-02-04T12:13:03;97512.78;;;10.10;67.10
48216;BME280;34005;48.844;10.098;2024-02-04T12:15:31;97519.00;;;10.17;67.96
48216;BME280;34005;48.844;10.098;2024-02-04T12:18:05;97496.22;;;10.27;67.99
48216;BME280;34005;48.844;10.098;2024-02-04T12:20:35;97481.63;;;10.35;67.02
48216;BME280;34005;48.844;10.098;2024-02-04T12:23:03;97482.94;;;10.39;67.21
48216;BME280;34005;48.844;10.098;2024-02-04T12:25:32;97481.00;;;10.41;66.75
48216;BME280;34005;48.844;10.098;2024-02-04T12:28:00;97480.16;;;10.40;66.76
48216;BME280;34005;48.844;10.098;2024-02-04T12:30:32;97480.50;;;10.37;67.22
48216;BME280;34005;48.844;10.098;2024-02-04T12:33:01;97493.69;;;10.36;67.76
48216;BME280;34005;48.844;10.098;2024-02-04T12:35:31;97475.56;;;10.34;67.59
48216;BME280;34005;48.844;10.098;2024-02-04T12:38:00;97487.13;;;10.31;67.45
48216;BME280;34005;48.844;10.098;2024-02-04T12:40:31;97467.41;;;10.29;67.69
48216;BME280;34005;48.844;10.098;2024-02-04T12:43:00;97459.06;;;10.25;68.03
48216;BME280;34005;48.844;10.098;2024-02-04T12:45:32;97465.25;;;10.24;68.65
48216;BME280;34005;48.844;10.098;2024-02-04T12:48:01;97456.78;;;10.22;68.07
48216;BME280;34005;48.844;10.098;2024-02-04T12:50:37;97449.94;;;10.21;67.95
48216;BME280;34005;48.844;10.098;2024-02-04T12:53:33;97448.28;;;10.20;67.53
48216;BME280;34005;48.844;10.098;2024-02-04T12:56:01;97446.97;;;10.16;68.27
48216;BME280;34005;48.844;10.098;2024-02-04T12:58:41;97451.22;;;10.17;68.98
48216;BME280;34005;48.844;10.098;2024-02-04T13:01:09;97447.81;;;10.17;68.31
48216;BME280;34005;48.844;10.098;2024-02-04T13:03:37;97445.34;;;10.15;67.26
48216;BME280;34005;48.844;10.098;2024-02-04T13:06:06;97431.66;;;10.13;67.86
48216;BME280;34005;48.844;10.098;2024-02-04T13:08:35;97431.66;;;10.13;67.73